Time;durP1;ratioP1;P1;durP2;ratioP2;P2;SDS_P1;SDS_P2;PMS_P1;PMS_P2;Temp;Humidity;BMP_temperature;BMP_pressure;BME280_temperature;BME280_humidity;BME280_pressure;Samples;Min_cycle;Max_cycle;Signal;HPM_P1;HPM_P2
2021/07/16 00:00:49;;;;;;;7.60;5.05;;;17.10;99.90;;;;;;5032710;28;20128;-40
2021/07/16 00:03:15;;;;;;;5.45;4.68;;;17.10;99.90;;;;;;5031211;28;20556;-39
2021/07/16 00:05:40;;;;;;;7.00;5.57;;;17.10;99.90;;;;;;5032599;28;20080;-39
2021/07/16 00:08:06;;;;;;;5.32;4.75;;;17.00;99.90;;;;;;5032558;28;20034;-42
2021/07/16 00:10:31;;;;;;;6.68;5.97;;;16.90;99.90;;;;;;5032485;28;20069;-42
2021/07/16 00:12:57;;;;;;;7.78;5.88;;;16.90;99.90;;;;;;5032358;28;20472;-40
2021/07/16 00:15:22;;;;;;;6.20;5.53;;;16.90;99.90;;;;;;5032401;28;20075;-43
2021/07/16 00:17:49;;;;;;;7.72;4.78;;;16.90;99.90;;;;;;5031237;28;20044;-39
2021/07/16 00:20:15;;;;;;;8.60;5.85;;;16.90;99.90;;;;;;5032375;28;20484;-42
2021/07/16 00:22:41;;;;;;;9.30;5.45;;;16.90;99.90;;;;;;5034131;28;20028;-39
2021/07/16 00:25:08;;;;;;;5.97;5.00;;;16.90;99.90;;;;;;5036166;28;20030;-41
2021/07/16 00:27:34;;;;;;;6.05;5.45;;;16.90;99.90;;;;;;5035963;28;20392;-39
2021/07/16 00:30:01;;;;;;;6.72;4.90;;;16.80;99.90;;;;;;5036057;28;20033;-41
2021/07/16 00:32:26;;;;;;;6.20;5.60;;;16.80;99.90;;;;;;5035992;28;20032;-40
2021/07/16 00:34:52;;;;;;;6.38;5.78;;;16.80;99.90;;;;;;5034799;28;20041;-42
2021/07/16 00:37:18;;;;;;;8.13;5.63;;;16.80;99.90;;;;;;5035815;28;20450;-41
2021/07/16 00:39:43;;;;;;;7.78;5.05;;;16.80;99.90;;;;;;5035847;28;20029;-41
2021/07/16 00:42:09;;;;;;;7.68;6.00;;;16.80;99.90;;;;;;5035781;28;20025;-39
2021/07/16 00:44:36;;;;;;;5.50;4.72;;;16.80;99.90;;;;;;5035827;28;20288;-40
2021/07/16 00:47:07;;;;;;;6.28;5.65;;;16.80;99.90;;;;;;5035781;28;20025;-41
2021/07/16 00:49:34;;;;;;;7.18;5.13;;;16.70;99.90;;;;;;5034438;28;20112;-39
2021/07/16 00:52:00;;;;;;;7.63;5.68;;;16.70;99.90;;;;;;5035728;28;20599;-42
2021/07/16 00:54:25;;;;;;;7.35;6.57;;;16.70;99.90;;;;;;5035627;28;20109;-41
2021/07/16 00:56:52;;;;;;;6.78;5.53;;;16.70;99.90;;;;;;5035491;28;20030;-40
2021/07/16 00:59:18;;;;;;;9.18;6.55;;;16.70;99.90;;;;;;5035447;28;20025;-41
2021/07/16 01:01:45;;;;;;;6.45;5.85;;;16.60;99.90;;;;;;5035603;28;20037;-38
2021/07/16 01:04:11;;;;;;;7.90;6.63;;;16.60;99.90;;;;;;5016390;28;20028;-39
2021/07/16 01:06:37;;;;;;;8.15;5.05;;;16.60;99.90;;;;;;5035371;28;20029;-43
2021/07/16 01:09:03;;;;;;;5.93;5.32;;;16.60;99.90;;;;;;5035600;28;20029;-39
2021/07/16 01:11:29;;;;;;;6.45;5.38;;;16.50;99.90;;;;;;5035207;28;20038;-41
2021/07/16 01:13:55;;;;;;;7.13;6.43;;;16.50;99.90;;;;;;5035249;28;20040;-39
2021/07/16 01:16:20;;;;;;;10.55;6.45;;;16.50;99.90;;;;;;5035208;28;20039;-41
2021/07/16 01:18:46;;;;;;;6.97;6.18;;;16.50;99.90;;;;;;5033837;28;20034;-39
2021/07/16 01:21:13;;;;;;;6.43;5.82;;;16.50;99.90;;;;;;5035166;28;20055;-42
2021/07/16 01:23:39;;;;;;;10.45;6.38;;;16.40;99.90;;;;;;5035045;28;20087;-39
2021/07/16 01:26:06;;;;;;;7.72;5.97;;;16.40;99.90;;;;;;5034936;28;20460;-42
2021/07/16 01:28:34;;;;;;;6.70;6.00;;;16.40;99.90;;;;;;5034943;28;20026;-41
2021/07/16 01:31:00;;;;;;;6.30;5.70;;;16.40;99.90;;;;;;5035021;28;20116;-41
2021/07/16 01:33:26;;;;;;;7.97;5.80;;;16.30;99.90;;;;;;5032787;28;20453;-41
2021/07/16 01:35:51;;;;;;;6.97;5.88;;;16.30;99.90;;;;;;5034592;28;20090;-41
2021/07/16 01:38:17;;;;;;;6.60;5.38;;;16.30;99.90;;;;;;5034789;28;20376;-41
2021/07/16 01:40:43;;;;;;;6.47;5.78;;;16.30;99.90;;;;;;5034622;28;20025;-39
2021/07/16 01:43:10;;;;;;;7.22;5.55;;;16.30;99.90;;;;;;5034839;28;20025;-39
2021/07/16 01:45:38;;;;;;;6.47;5.80;;;16.30;99.90;;;;;;5034670;28;20045;-39
2021/07/16 01:48:07;;;;;;;7.18;6.30;;;16.20;99.90;;;;;;5033366;28;20356;-40
2021/07/16 01:50:35;;;;;;;9.35;5.90;;;16.20;99.90;;;;;;5034773;28;20435;-39
2021/07/16 01:53:02;;;;;;;7.47;6.28;;;16.20;99.90;;;;;;5034499;28;20045;-41
2021/07/16 01:55:30;;;;;;;8.05;6.10;;;16.20;99.90;;;;;;5034394;28;20025;-41
2021/07/16 01:57:57;;;;;;;7.18;5.30;;;16.20;99.90;;;;;;5034357;28;20031;-42
2021/07/16 02:00:29;;;;;;;6.10;5.45;;;16.20;99.90;;;;;;5034326;28;20029;-39
2021/07/16 02:02:57;;;;;;;10.80;8.05;;;16.10;99.90;;;;;;5033088;28;20018;-42
2021/07/16 02:05:24;;;;;;;12.85;6.65;;;16.10;99.90;;;;;;5034328;28;20029;-39
2021/07/16 02:07:51;;;;;;;9.95;7.05;;;16.10;99.90;;;;;;5034145;28;20384;-39
2021/07/16 02:10:18;;;;;;;8.38;5.88;;;16.10;99.90;;;;;;5034272;28;20025;-41
2021/07/16 02:12:44;;;;;;;9.77;6.13;;;16.10;99.90;;;;;;5034168;28;20025;-43
2021/07/16 02:15:16;;;;;;;6.15;5.55;;;16.10;99.90;;;;;;5034156;28;20094;-41
2021/07/16 02:17:41;;;;;;;6.05;5.05;;;16.00;99.90;;;;;;5033603;28;20037;-41
2021/07/16 02:20:22;;;;;;;5.90;5.30;;;16.00;99.90;;;;;;5033428;28;20025;-39
2021/07/16 02:22:48;;;;;;;8.25;5.55;;;16.00;99.90;;;;;;5033962;28;20460;-42
2021/07/16 02:25:14;;;;;;;6.90;5.35;;;16.00;99.90;;;;;;5033916;28;20025;-39
2021/07/16 02:27:40;;;;;;;6.20;5.60;;;15.90;99.90;;;;;;5033871;28;20029;-42
2021/07/16 02:30:07;;;;;;;6.72;5.90;;;15.90;99.90;;;;;;5033861;28;20033;-40
2021/07/16 02:32:33;;;;;;;6.07;5.47;;;15.90;99.90;;;;;;5033850;28;20026;-39
2021/07/16 02:34:58;;;;;;;5.30;4.80;;;15.90;99.90;;;;;;5032686;28;20083;-40
2021/07/16 02:37:24;;;;;;;8.00;5.93;;;15.90;99.90;;;;;;5033569;28;20053;-41
2021/07/16 02:39:49;;;;;;;9.27;6.03;;;15.90;99.90;;;;;;5033539;28;20373;-41
2021/07/16 02:42:15;;;;;;;6.90;4.90;;;15.90;99.90;;;;;;5015943;28;20017;-41
2021/07/16 02:44:40;;;;;;;6.57;5.78;;;15.80;99.90;;;;;;5033340;28;20026;-41
2021/07/16 02:47:06;;;;;;;11.60;6.40;;;15.80;99.90;;;;;;5033564;28;20029;-41
2021/07/16 02:49:31;;;;;;;8.98;7.00;;;15.90;99.90;;;;;;5032054;28;20473;-39
2021/07/16 02:51:57;;;;;;;6.55;5.90;;;15.90;99.90;;;;;;5033481;28;20365;-43
2021/07/16 02:54:22;;;;;;;7.40;5.75;;;15.90;99.90;;;;;;5033418;28;20025;-40
2021/07/16 02:56:48;;;;;;;6.60;5.72;;;15.90;99.90;;;;;;5033336;28;20034;-41
2021/07/16 02:59:13;;;;;;;7.13;5.60;;;15.80;99.90;;;;;;5033262;28;20041;-41
2021/07/16 03:01:58;;;;;;;5.35;4.85;;;15.80;99.90;;;;;;5033234;28;20056;-40
2021/07/16 03:04:24;;;;;;;5.28;4.78;;;15.80;99.90;;;;;;5031949;28;20464;-41
2021/07/16 03:06:50;;;;;;;5.35;4.60;;;15.80;99.90;;;;;;5033136;28;20072;-40
2021/07/16 03:09:15;;;;;;;5.97;5.18;;;15.80;99.90;;;;;;5033214;28;20030;-39
2021/07/16 03:11:41;;;;;;;5.70;5.07;;;15.80;99.90;;;;;;5033088;28;20357;-42
2021/07/16 03:14:06;;;;;;;7.07;6.38;;;15.80;99.90;;;;;;5033154;28;20112;-41
2021/07/16 03:16:32;;;;;;;5.82;5.22;;;15.80;99.90;;;;;;5032932;28;20034;-43
2021/07/16 03:18:58;;;;;;;7.85;5.80;;;15.80;99.90;;;;;;5031587;28;20104;-43
2021/07/16 03:21:24;;;;;;;6.28;4.70;;;15.80;99.90;;;;;;5032961;28;20148;-41
2021/07/16 03:23:49;;;;;;;5.75;4.85;;;15.80;99.90;;;;;;5032826;28;20032;-39
2021/07/16 03:26:15;;;;;;;6.75;4.35;;;15.90;99.90;;;;;;5032854;28;20075;-41
2021/07/16 03:28:41;;;;;;;7.07;4.97;;;15.80;99.90;;;;;;5032875;28;20030;-41
2021/07/16 03:31:07;;;;;;;5.43;4.93;;;15.90;99.90;;;;;;5032944;28;20033;-42
2021/07/16 03:33:33;;;;;;;5.95;5.35;;;15.90;99.90;;;;;;5031633;28;20400;-41
2021/07/16 03:35:59;;;;;;;5.00;4.47;;;16.00;99.90;;;;;;5032708;28;20052;-39
2021/07/16 03:38:24;;;;;;;6.13;4.75;;;16.00;99.90;;;;;;5032740;28;20098;-45
2021/07/16 03:40:54;;;;;;;5.47;4.90;;;16.00;99.90;;;;;;5032848;28;20065;-40
2021/07/16 03:43:20;;;;;;;7.07;4.38;;;16.10;99.90;;;;;;5032841;28;20041;-39
2021/07/16 03:45:45;;;;;;;5.90;5.07;;;16.10;99.90;;;;;;5032643;28;20063;-39
2021/07/16 03:48:11;;;;;;;5.60;5.10;;;16.20;99.90;;;;;;5031487;28;20437;-40
2021/07/16 03:50:37;;;;;;;5.75;4.85;;;16.20;99.90;;;;;;5032683;28;20030;-39
2021/07/16 03:53:03;;;;;;;7.97;5.68;;;16.40;99.90;;;;;;5032885;28;20087;-39
2021/07/16 03:55:28;;;;;;;5.72;5.10;;;16.70;99.90;;;;;;5032696;28;20030;-42
2021/07/16 03:57:54;;;;;;;5.57;5.07;;;17.00;99.90;;;;;;5034709;28;20112;-41
2021/07/16 04:00:29;;;;;;;5.47;4.97;;;17.30;99.90;;;;;;5036569;28;20036;-41
2021/07/16 04:02:59;;;;;;;7.60;5.05;;;17.50;99.90;;;;;;5035364;28;20067;-40
2021/07/16 04:05:25;;;;;;;6.82;5.45;;;17.70;99.90;;;;;;5036573;28;20092;-41
2021/07/16 04:07:53;;;;;;;6.03;5.30;;;17.80;99.90;;;;;;5036466;28;20022;-40
2021/07/16 04:10:22;;;;;;;13.30;6.10;;;17.80;99.90;;;;;;5036520;28;20029;-41
2021/07/16 04:12:55;;;;;;;7.80;6.38;;;17.80;99.90;;;;;;5036317;28;20057;-44
2021/07/16 04:15:21;;;;;;;7.68;6.15;;;17.80;99.90;;;;;;5036451;28;20116;-40
2021/07/16 04:17:47;;;;;;;6.97;5.32;;;17.80;99.90;;;;;;5035008;28;20112;-39
2021/07/16 04:20:13;;;;;;;5.25;4.75;;;17.90;99.90;;;;;;5036249;28;20029;-41
2021/07/16 04:22:39;;;;;;;7.47;5.38;;;18.10;99.90;;;;;;5036239;28;20056;-40
2021/07/16 04:25:06;;;;;;;5.85;5.25;;;18.50;99.90;;;;;;5036113;28;20468;-39
2021/07/16 04:27:31;;;;;;;6.28;5.63;;;19.10;99.90;;;;;;5036061;28;20057;-39
2021/07/16 04:29:58;;;;;;;5.88;4.28;;;20.10;99.90;;;;;;5036056;28;20033;-41
2021/07/16 04:32:23;;;;;;;5.68;5.15;;;21.00;99.90;;;;;;5036105;28;20030;-40
2021/07/16 04:34:49;;;;;;;5.03;4.38;;;21.90;99.90;;;;;;5034696;28;20033;-40
2021/07/16 04:37:14;;;;;;;6.18;4.97;;;22.80;99.90;;;;;;5035868;28;20138;-42
2021/07/16 04:39:40;;;;;;;8.57;5.38;;;23.60;99.90;;;;;;5035858;28;20045;-43
2021/07/16 04:42:06;;;;;;;7.00;4.28;;;24.30;99.90;;;;;;5035751;28;20527;-40
2021/07/16 04:44:32;;;;;;;8.95;5.13;;;25.00;99.90;;;;;;5035847;28;20527;-42
2021/07/16 04:46:58;;;;;;;4.40;4.00;;;25.90;99.90;;;;;;5035686;28;20037;-40
2021/07/16 04:49:24;;;;;;;5.85;4.53;;;26.80;99.90;;;;;;5034475;28;20032;-42
2021/07/16 04:51:49;;;;;;;5.05;4.60;;;27.70;99.90;;;;;;5035668;28;20112;-44
2021/07/16 04:54:16;;;;;;;4.95;3.85;;;28.50;99.90;;;;;;5035600;28;20109;-41
2021/07/16 04:56:43;;;;;;;5.30;4.88;;;29.20;99.90;;;;;;5035483;28;20468;-42
2021/07/16 04:59:09;;;;;;;5.07;4.53;;;29.90;99.90;;;;;;5035403;28;20102;-40
2021/07/16 05:01:34;;;;;;;5.75;4.78;;;30.40;99.90;;;;;;5035568;28;20476;-42
2021/07/16 05:04:00;;;;;;;4.55;4.15;;;30.80;99.90;;;;;;5034215;28;20025;-40
2021/07/16 05:06:25;;;;;;;5.85;5.28;;;31.30;99.90;;;;;;5035484;28;20029;-42
2021/07/16 05:08:52;;;;;;;5.50;5.00;;;31.70;99.90;;;;;;5035270;28;20488;-42
2021/07/16 05:11:18;;;;;;;5.03;4.30;;;32.20;99.90;;;;;;5035349;28;20040;-41
2021/07/16 05:13:44;;;;;;;5.53;5.03;;;32.60;99.90;;;;;;5035293;28;20535;-43
2021/07/16 05:16:12;;;;;;;5.70;5.00;;;33.00;99.90;;;;;;5035256;28;20060;-42
2021/07/16 05:18:39;;;;;;;6.13;5.32;;;33.30;99.90;;;;;;5034151;28;20454;-40
2021/07/16 05:21:06;;;;;;;5.88;4.97;;;33.50;99.90;;;;;;5035133;28;20025;-44
2021/07/16 05:23:31;;;;;;;4.68;4.28;;;33.80;99.90;;;;;;5035242;28;20026;-43
2021/07/16 05:25:57;;;;;;;6.35;5.00;;;34.20;99.90;;;;;;5034963;28;20032;-40
2021/07/16 05:28:23;;;;;;;5.25;4.75;;;34.50;99.90;;;;;;5035112;28;20033;-43
2021/07/16 05:30:48;;;;;;;5.55;4.85;;;34.80;99.90;;;;;;5034982;28;20372;-40
2021/07/16 05:33:15;;;;;;;4.63;4.22;;;35.10;99.90;;;;;;5033939;28;20029;-40
2021/07/16 05:35:40;;;;;;;4.85;4.45;;;35.50;99.90;;;;;;5034748;28;20460;-41
2021/07/16 05:38:08;;;;;;;5.68;4.53;;;35.80;99.90;;;;;;5034760;28;20030;-41
2021/07/16 05:40:34;;;;;;;4.55;3.97;;;36.10;98.70;;;;;;5034730;28;20025;-41
2021/07/16 05:43:07;;;;;;;5.03;4.32;;;36.40;97.00;;;;;;5034694;28;20067;-41
2021/07/16 05:45:33;;;;;;;4.63;4.22;;;36.80;84.20;;;;;;5034649;28;20495;-43
2021/07/16 05:48:00;;;;;;;6.25;4.75;;;37.10;91.30;;;;;;5033371;28;20332;-43
2021/07/16 05:50:26;;;;;;;4.75;4.38;;;37.30;91.30;;;;;;5034708;28;20348;-43
2021/07/16 05:52:52;;;;;;;4.60;4.20;;;37.40;89.80;;;;;;5034599;28;20018;-41
2021/07/16 05:55:17;;;;;;;6.38;4.35;;;37.60;87.00;;;;;;5034438;28;20108;-42
2021/07/16 05:57:43;;;;;;;4.47;4.10;;;37.70;83.70;;;;;;5034484;28;20039;-45
2021/07/16 06:00:09;;;;;;;5.20;4.63;;;38.00;81.60;;;;;;5034316;28;20067;-41
2021/07/16 06:02:34;;;;;;;5.75;4.47;;;38.20;77.30;;;;;;5034028;28;20384;-45
2021/07/16 06:05:00;;;;;;;5.60;4.28;;;38.60;74.50;;;;;;5033473;28;20022;-42
2021/07/16 06:07:25;;;;;;;4.53;4.13;;;39.00;70.20;;;;;;5034269;28;20029;-41
2021/07/16 06:09:51;;;;;;;4.60;4.20;;;39.20;68.60;;;;;;5034046;28;20029;-43
2021/07/16 06:12:16;;;;;;;5.00;4.05;;;39.40;66.30;;;;;;5034238;28;20025;-43
2021/07/16 06:14:42;;;;;;;4.50;4.10;;;39.60;63.60;;;;;;5034169;28;20420;-45
2021/07/16 06:17:09;;;;;;;4.13;3.80;;;39.90;61.60;;;;;;5034319;28;20421;-43
2021/07/16 06:19:34;;;;;;;6.43;4.45;;;40.10;59.60;;;;;;5032217;28;20025;-45
2021/07/16 06:22:00;;;;;;;5.22;4.53;;;40.00;57.20;;;;;;5016202;28;20091;-45
2021/07/16 06:24:25;;;;;;;4.60;4.20;;;39.90;54.20;;;;;;5033821;28;20025;-43
2021/07/16 06:26:51;;;;;;;4.95;4.50;;;40.10;54.20;;;;;;5033939;28;20092;-42
2021/07/16 06:29:17;;;;;;;4.32;3.92;;;40.20;50.50;;;;;;5033826;28;20060;-41
2021/07/16 06:31:42;;;;;;;5.55;3.95;;;40.30;52.50;;;;;;5033859;28;20451;-42
2021/07/16 06:34:07;;;;;;;5.22;4.70;;;40.40;51.00;;;;;;5032537;28;20042;-44
2021/07/16 06:36:33;;;;;;;5.43;5.00;;;40.50;50.10;;;;;;5033650;28;20520;-41
2021/07/16 06:38:59;;;;;;;5.00;4.15;;;40.40;49.50;;;;;;5033482;28;20034;-43
2021/07/16 06:41:24;;;;;;;5.50;4.93;;;40.70;49.10;;;;;;5033628;28;20025;-47
2021/07/16 06:43:49;;;;;;;6.00;5.28;;;40.90;48.00;;;;;;5033618;28;20033;-43
2021/07/16 06:46:16;;;;;;;5.85;4.95;;;41.10;46.90;;;;;;5033574;28;20025;-43
2021/07/16 06:48:43;;;;;;;7.35;6.13;;;41.30;45.50;;;;;;5032215;28;20064;-44
2021/07/16 06:51:09;;;;;;;6.90;6.00;;;41.30;44.10;;;;;;5033479;28;20026;-42
2021/07/16 06:53:35;;;;;;;6.55;5.90;;;41.30;43.00;;;;;;5033361;28;20542;-44
2021/07/16 06:56:00;;;;;;;6.28;5.78;;;41.50;43.40;;;;;;5033353;28;20049;-44
2021/07/16 06:58:26;;;;;;;6.22;5.63;;;41.50;42.10;;;;;;5033295;28;20037;-45
2021/07/16 07:00:51;;;;;;;6.38;5.78;;;41.70;42.10;;;;;;5015637;28;20021;-44
2021/07/16 07:03:17;;;;;;;7.22;6.25;;;41.80;41.80;;;;;;5032011;28;20100;-41
2021/07/16 07:05:42;;;;;;;5.25;4.75;;;42.00;40.30;;;;;;5033494;28;20029;-43
2021/07/16 07:08:07;;;;;;;7.75;6.57;;;42.30;39.90;;;;;;5033042;28;20029;-43
2021/07/16 07:10:33;;;;;;;7.57;6.00;;;42.60;39.10;;;;;;5033331;28;20368;-43
2021/07/16 07:13:03;;;;;;;6.30;5.70;;;42.80;38.70;;;;;;5033121;28;20033;-44
2021/07/16 07:15:29;;;;;;;7.38;5.88;;;43.10;37.20;;;;;;5033106;28;20112;-43
2021/07/16 07:17:54;;;;;;;6.90;6.10;;;43.50;37.50;;;;;;5031826;28;20415;-44
2021/07/16 07:20:20;;;;;;;5.82;5.30;;;43.90;36.70;;;;;;5032959;28;20034;-43
2021/07/16 07:22:45;;;;;;;5.90;5.40;;;43.90;35.80;;;;;;5032940;28;20169;-42
2021/07/16 07:25:11;;;;;;;7.57;5.75;;;44.00;35.00;;;;;;5032977;28;20030;-43
2021/07/16 07:27:37;;;;;;;6.57;5.88;;;44.00;35.10;;;;;;5033024;28;20053;-44
2021/07/16 07:30:04;;;;;;;8.60;6.10;;;44.20;34.00;;;;;;5032935;28;20036;-41
2021/07/16 07:32:29;;;;;;;6.60;5.75;;;44.10;34.10;;;;;;5032041;28;20022;-41
2021/07/16 07:34:55;;;;;;;6.35;5.75;;;43.80;34.00;;;;;;5031516;28;20056;-44
2021/07/16 07:37:21;;;;;;;6.50;5.90;;;43.40;34.20;;;;;;5032569;28;20052;-43
2021/07/16 07:39:46;;;;;;;6.50;5.75;;;43.60;34.20;;;;;;5032755;28;20026;-39
2021/07/16 07:42:17;;;;;;;6.60;5.50;;;43.90;33.70;;;;;;5032796;28;20029;-40
2021/07/16 07:44:43;;;;;;;6.25;5.63;;;44.10;33.20;;;;;;5032780;28;20087;-40
2021/07/16 07:47:09;;;;;;;7.18;5.40;;;44.20;33.00;;;;;;5032648;28;20088;-40
2021/07/16 07:49:35;;;;;;;5.10;4.60;;;44.10;32.40;;;;;;5031421;28;20452;-43
2021/07/16 07:52:00;;;;;;;5.07;4.57;;;44.30;32.10;;;;;;5032552;28;20018;-44
2021/07/16 07:54:26;;;;;;;8.93;5.60;;;44.60;31.70;;;;;;5032633;28;20056;-42
2021/07/16 07:56:51;;;;;;;6.05;4.88;;;44.30;31.90;;;;;;5032656;28;20030;-43
2021/07/16 07:59:17;;;;;;;9.13;4.97;;;44.20;32.00;;;;;;5032509;28;20128;-42
2021/07/16 08:01:42;;;;;;;5.57;4.93;;;44.00;31.90;;;;;;5032682;28;20025;-39
2021/07/16 08:04:08;;;;;;;6.00;4.47;;;43.50;31.90;;;;;;5031280;28;20499;-42
2021/07/16 08:06:34;;;;;;;5.18;4.68;;;43.60;32.10;;;;;;5032442;28;20034;-43
2021/07/16 08:08:59;;;;;;;5.03;4.47;;;43.80;30.60;;;;;;5032514;28;20040;-43
2021/07/16 08:11:26;;;;;;;4.65;4.35;;;44.00;31.00;;;;;;5032572;28;20476;-41
2021/07/16 08:13:51;;;;;;;7.40;4.68;;;43.90;30.90;;;;;;5032403;28;20037;-42
2021/07/16 08:16:17;;;;;;;4.40;4.00;;;43.90;30.70;;;;;;5032457;28;20056;-43
2021/07/16 08:18:42;;;;;;;4.88;4.47;;;44.30;30.50;;;;;;5031074;28;20072;-47
2021/07/16 08:21:08;;;;;;;4.88;4.47;;;44.50;30.10;;;;;;5032318;28;20087;-42
2021/07/16 08:23:34;;;;;;;5.18;4.68;;;44.80;30.00;;;;;;5032393;28;20053;-41
2021/07/16 08:25:59;;;;;;;5.20;4.70;;;44.40;29.80;;;;;;5032349;28;20056;-43
2021/07/16 08:28:25;;;;;;;5.00;4.47;;;44.30;29.90;;;;;;5032315;28;20461;-44
2021/07/16 08:30:50;;;;;;;6.70;4.90;;;44.40;29.70;;;;;;5014628;28;20100;-42
2021/07/16 08:33:16;;;;;;;4.93;4.53;;;44.50;29.60;;;;;;5030972;28;20103;-41
2021/07/16 08:35:41;;;;;;;6.03;4.97;;;44.30;29.50;;;;;;5032048;28;20037;-42
2021/07/16 08:38:07;;;;;;;5.10;4.60;;;44.20;29.70;;;;;;5032115;28;20068;-41
2021/07/16 08:40:33;;;;;;;9.75;5.45;;;44.10;29.70;;;;;;5032190;28;20021;-41
2021/07/16 08:42:59;;;;;;;7.35;5.00;;;43.70;29.90;;;;;;5032776;28;20028;-41
2021/07/16 08:45:26;;;;;;;4.78;4.30;;;43.40;30.20;;;;;;5035840;28;20406;-44
2021/07/16 08:47:52;;;;;;;5.57;4.63;;;43.70;30.50;;;;;;5034435;28;20021;-39
2021/07/16 08:50:18;;;;;;;5.47;4.55;;;44.10;30.20;;;;;;5035610;28;20029;-41
2021/07/16 08:52:46;;;;;;;5.18;4.40;;;44.00;30.10;;;;;;5035678;28;20018;-39
2021/07/16 08:55:13;;;;;;;5.43;4.93;;;43.80;30.20;;;;;;5035626;28;20419;-43
2021/07/16 08:57:39;;;;;;;7.30;4.80;;;43.70;30.20;;;;;;5035588;28;20022;-40
2021/07/16 09:00:10;;;;;;;4.88;4.40;;;44.10;30.20;;;;;;5035444;28;20033;-41
2021/07/16 09:02:49;;;;;;;4.18;3.78;;;43.40;30.50;;;;;;5034216;28;20105;-39
2021/07/16 09:05:15;;;;;;;5.60;4.40;;;42.00;31.80;;;;;;5035438;28;20116;-39
2021/07/16 09:07:42;;;;;;;4.63;4.22;;;41.60;33.40;;;;;;5035515;28;20030;-41
2021/07/16 09:10:09;;;;;;;6.65;4.15;;;42.10;32.70;;;;;;5035439;28;20461;-39
2021/07/16 09:12:36;;;;;;;8.32;5.10;;;41.80;32.70;;;;;;5035590;28;20022;-41
2021/07/16 09:15:14;;;;;;;9.88;5.45;;;41.70;33.00;;;;;;5035335;28;20021;-39
2021/07/16 09:17:45;;;;;;;10.23;5.18;;;42.10;32.10;;;;;;5033828;28;20029;-39
2021/07/16 09:20:25;;;;;;;7.65;4.93;;;42.70;32.20;;;;;;5035085;28;20049;-41
2021/07/16 09:23:13;;;;;;;4.03;3.65;;;43.10;30.90;;;;;;5035143;28;20029;-42
2021/07/16 09:25:40;;;;;;;5.35;3.97;;;43.10;31.40;;;;;;5035071;28;20025;-40
2021/07/16 09:28:06;;;;;;;4.32;3.97;;;43.10;31.30;;;;;;5034960;28;20101;-41
2021/07/16 09:30:31;;;;;;;4.30;3.72;;;43.60;31.00;;;;;;5034991;28;20029;-39
2021/07/16 09:33:05;;;;;;;3.88;3.53;;;44.00;30.50;;;;;;5033743;28;20035;-41
2021/07/16 09:35:38;;;;;;;4.15;3.80;;;44.10;29.90;;;;;;5034891;28;20034;-41
2021/07/16 09:38:12;;;;;;;6.10;4.13;;;44.00;29.90;;;;;;5034945;28;20116;-41
2021/07/16 09:40:40;;;;;;;6.28;4.40;;;43.50;29.70;;;;;;5034767;28;20029;-41
2021/07/16 09:43:10;;;;;;;4.78;4.35;;;43.40;29.90;;;;;;5034676;28;20064;-42
2021/07/16 09:45:40;;;;;;;6.40;4.57;;;43.40;29.60;;;;;;5034739;28;20026;-39
2021/07/16 09:48:28;;;;;;;5.13;4.20;;;42.50;29.70;;;;;;5033322;28;20025;-40
2021/07/16 09:51:13;;;;;;;4.93;4.43;;;42.50;30.00;;;;;;5034611;28;20056;-39
2021/07/16 09:53:50;;;;;;;5.20;4.63;;;42.70;29.40;;;;;;5034657;28;20423;-39
2021/07/16 09:56:28;;;;;;;6.63;4.63;;;42.20;30.00;;;;;;5033586;28;20030;-38
2021/07/16 09:59:07;;;;;;;6.10;4.55;;;41.80;30.70;;;;;;5016696;28;20033;-39
2021/07/16 10:01:37;;;;;;;6.38;4.30;;;40.80;32.10;;;;;;5034347;28;20520;-41
2021/07/16 10:04:18;;;;;;;5.55;4.72;;;40.10;32.80;;;;;;5033132;28;20032;-38
2021/07/16 10:06:47;;;;;;;4.88;4.32;;;39.70;33.80;;;;;;5034390;28;20026;-39
2021/07/16 10:09:13;;;;;;;4.90;4.50;;;39.30;34.10;;;;;;5034263;28;20059;-39
2021/07/16 10:11:39;;;;;;;5.05;4.53;;;39.10;34.30;;;;;;5034034;28;20025;-39
2021/07/16 10:14:08;;;;;;;7.40;4.47;;;39.00;35.00;;;;;;5034178;28;20026;-40
2021/07/16 10:16:35;;;;;;;7.80;4.88;;;38.70;35.30;;;;;;5034054;28;20523;-39
2021/07/16 10:19:02;;;;;;;4.80;4.40;;;38.50;35.80;;;;;;5032783;28;20025;-40
2021/07/16 10:21:27;;;;;;;7.78;5.10;;;38.20;36.50;;;;;;5034031;28;20034;-40
2021/07/16 10:23:55;;;;;;;5.13;4.72;;;37.90;36.90;;;;;;5033984;28;20480;-38
2021/07/16 10:26:22;;;;;;;5.60;5.10;;;37.50;37.40;;;;;;5033778;28;20014;-40
2021/07/16 10:28:47;;;;;;;6.13;5.15;;;37.30;38.10;;;;;;5033917;28;20025;-38
2021/07/16 10:31:28;;;;;;;6.10;4.97;;;37.00;38.90;;;;;;5033899;28;20358;-40
2021/07/16 10:33:55;;;;;;;7.10;4.80;;;36.80;40.20;;;;;;5032561;28;20029;-41
2021/07/16 10:36:45;;;;;;;5.10;4.60;;;36.60;40.60;;;;;;5033792;28;20404;-44
2021/07/16 10:39:32;;;;;;;8.05;4.75;;;36.40;40.50;;;;;;5026038;28;20048;-41
2021/07/16 10:41:58;;;;;;;5.30;4.80;;;36.30;40.90;;;;;;5022950;28;20041;-43
2021/07/16 10:44:46;;;;;;;7.25;4.65;;;36.20;41.50;;;;;;5033543;28;20095;-41
2021/07/16 10:47:46;;;;;;;6.57;5.18;;;36.00;42.30;;;;;;5033445;28;20434;-38
2021/07/16 10:50:32;;;;;;;5.65;5.03;;;35.40;42.20;;;;;;5022962;28;20038;-40
2021/07/16 10:52:58;;;;;;;10.02;5.68;;;35.10;43.10;;;;;;5033421;28;20030;-42
2021/07/16 10:55:32;;;;;;;8.77;5.18;;;34.90;44.10;;;;;;5033271;28;20018;-38
2021/07/16 10:58:16;;;;;;;7.53;5.33;;;34.80;46.80;;;;;;5033398;28;20480;-41
2021/07/16 11:00:42;;;;;;;6.75;5.38;;;34.80;48.70;;;;;;5015667;28;20037;-38
2021/07/16 11:03:12;;;;;;;6.25;5.30;;;34.70;46.90;;;;;;5032026;28;20025;-38
2021/07/16 11:05:38;;;;;;;6.72;5.10;;;34.40;47.50;;;;;;5033098;28;20029;-40
2021/07/16 11:08:05;;;;;;;7.78;5.85;;;34.40;47.40;;;;;;5033167;28;20064;-40
2021/07/16 11:10:47;;;;;;;7.93;5.05;;;34.50;48.00;;;;;;5033037;28;20029;-40
2021/07/16 11:13:31;;;;;;;6.65;5.20;;;34.60;50.60;;;;;;5033200;28;20068;-38
2021/07/16 11:15:58;;;;;;;6.75;5.63;;;34.80;51.70;;;;;;5033087;28;20033;-40
2021/07/16 11:18:27;;;;;;;5.75;4.93;;;34.90;49.40;;;;;;5031662;28;20205;-38
2021/07/16 11:20:56;;;;;;;5.60;4.97;;;35.10;49.90;;;;;;5033074;28;20030;-38
2021/07/16 11:23:48;;;;;;;6.82;5.90;;;35.10;49.60;;;;;;5032955;28;20499;-40
2021/07/16 11:26:16;;;;;;;6.03;5.43;;;35.10;50.70;;;;;;5032999;28;20021;-39
2021/07/16 11:28:41;;;;;;;6.07;5.47;;;35.10;49.70;;;;;;5032865;28;20030;-39
2021/07/16 11:31:07;;;;;;;7.35;5.65;;;35.10;48.70;;;;;;5032785;28;20041;-40
2021/07/16 11:33:32;;;;;;;6.05;5.30;;;34.80;49.30;;;;;;5031613;28;20029;-38
2021/07/16 11:35:59;;;;;;;6.32;5.45;;;34.70;49.60;;;;;;5032715;28;20103;-40
2021/07/16 11:38:25;;;;;;;7.10;5.25;;;34.70;49.60;;;;;;5014991;28;20055;-38
2021/07/16 11:40:51;;;;;;;7.47;5.35;;;34.80;50.00;;;;;;5032816;28;20109;-38
2021/07/16 11:43:16;;;;;;;8.25;5.20;;;34.70;49.20;;;;;;5032784;28;20025;-38
2021/07/16 11:45:43;;;;;;;8.50;4.53;;;34.70;48.90;;;;;;5032550;28;20025;-39
2021/07/16 11:48:21;;;;;;;6.43;5.60;;;34.70;49.00;;;;;;5031468;28;20020;-39
2021/07/16 11:50:47;;;;;;;6.78;5.07;;;34.70;48.20;;;;;;5032885;28;20353;-39
2021/07/16 11:53:14;;;;;;;5.30;4.65;;;34.70;49.00;;;;;;5032700;28;20032;-42
2021/07/16 11:55:41;;;;;;;5.85;5.07;;;34.80;48.80;;;;;;5032642;28;20026;-38
2021/07/16 11:58:07;;;;;;;4.95;4.47;;;34.90;48.00;;;;;;5032563;28;20109;-38
2021/07/16 12:00:37;;;;;;;6.30;4.68;;;35.00;47.10;;;;;;5032482;28;20112;-39
2021/07/16 12:03:08;;;;;;;5.15;4.28;;;35.00;46.80;;;;;;5031488;28;20025;-41
2021/07/16 12:05:48;;;;;;;6.75;4.45;;;35.10;46.70;;;;;;5032554;28;20021;-40
2021/07/16 12:08:21;;;;;;;6.00;4.80;;;35.00;47.70;;;;;;5032559;28;20469;-40
2021/07/16 12:10:48;;;;;;;8.95;4.50;;;34.90;47.60;;;;;;5032638;28;20021;-38
2021/07/16 12:13:16;;;;;;;6.38;4.85;;;35.10;47.60;;;;;;5032515;28;20033;-43
2021/07/16 12:15:42;;;;;;;5.45;4.95;;;35.10;47.40;;;;;;5032366;28;20096;-39
2021/07/16 12:18:08;;;;;;;5.72;5.03;;;35.10;47.00;;;;;;5031948;28;20049;-42
2021/07/16 12:20:38;;;;;;;5.57;4.60;;;35.20;47.00;;;;;;5036214;28;20428;-41
2021/07/16 12:23:09;;;;;;;7.47;4.70;;;35.20;47.10;;;;;;5036222;28;20078;-41
2021/07/16 12:25:38;;;;;;;8.48;5.50;;;35.10;46.30;;;;;;5036224;28;20052;-40
2021/07/16 12:28:18;;;;;;;6.82;4.70;;;35.00;45.60;;;;;;5036246;28;20488;-41
2021/07/16 12:30:44;;;;;;;4.85;4.45;;;34.80;46.40;;;;;;5036143;28;20074;-43
2021/07/16 12:33:11;;;;;;;6.45;4.70;;;34.70;46.60;;;;;;5034945;28;20540;-42
2021/07/16 12:35:39;;;;;;;8.07;4.88;;;34.70;46.20;;;;;;5035789;28;20571;-40
2021/07/16 12:38:13;;;;;;;4.65;4.20;;;34.80;46.10;;;;;;5035993;28;20073;-39
2021/07/16 12:40:39;;;;;;;6.20;4.20;;;34.90;46.10;;;;;;5035902;28;20087;-40
2021/07/16 12:43:16;;;;;;;6.38;4.70;;;34.80;46.10;;;;;;5035955;28;20022;-40
2021/07/16 12:45:55;;;;;;;9.73;4.82;;;34.80;47.90;;;;;;5035880;28;20025;-38
2021/07/16 12:48:30;;;;;;;5.90;4.57;;;34.50;47.60;;;;;;5034477;28;20024;-39